Reese River Valley, Nevada Weather observations

Data are for 10 minute period ending at time listed.
 Day   Time   Solar   Ave.   Ave.  Ave.  Vector  Max.   Baro.   Total    
  of    of     Rad.   Air    Rel.  Wind   Wind   Wind  Press.  Precip.   
Year   Day            Temp.  Hum.  Speed  Dir.   Gust                    
2015   (PST)  Kw/m2    F      %     mph   deg.    mph    mb.     in.     
-------------------------------------------------------------------------
  90    7:40   100.00  99999.0   99999  99999.0   99999   99999.0   99999.0   99999.00 
  90    7:50   100.00  99999.0   99999  99999.0   99999   99999.0   99999.0   99999.00 
  90    8:00   100.00  99999.0   99999  99999.0   99999   99999.0   99999.0   99999.00 
  90    8:10   100.00  99999.0   99999  99999.0   99999   99999.0   99999.0   99999.00 
  90    8:20   100.00  99999.0   99999  99999.0   99999   99999.0   99999.0   99999.00 
  90    8:30   0.53   63.0    16   12.1   190    16.7   812.8    0.00 
  90    8:40   100.00  99999.0   99999  99999.0   99999   99999.0   99999.0   99999.00 
  90    8:50   100.00  99999.0   99999  99999.0   99999   99999.0   99999.0   99999.00 
  90    9:00   100.00  99999.0   99999  99999.0   99999   99999.0   99999.0   99999.00 
  90    9:10   100.00  99999.0   99999  99999.0   99999   99999.0   99999.0   99999.00 
  90    9:20   100.00  99999.0   99999  99999.0   99999   99999.0   99999.0   99999.00 
  90    9:30   0.75   66.4    14    9.6   271    19.0   812.8    0.00 
  90    9:40   100.00  99999.0   99999  99999.0   99999   99999.0   99999.0   99999.00 
  90    9:50   100.00  99999.0   99999  99999.0   99999   99999.0   99999.0   99999.00 
  90   10:00   100.00  99999.0   99999  99999.0   99999   99999.0   99999.0   99999.00 
  90   10:10   100.00  99999.0   99999  99999.0   99999   99999.0   99999.0   99999.00 
  90   10:20   100.00  99999.0   99999  99999.0   99999   99999.0   99999.0   99999.00 
  90   10:30   0.86   64.4    20   14.4   292    20.6   812.7    0.00 
  90   10:40   100.00  99999.0   99999  99999.0   99999   99999.0   99999.0   99999.00 
  90   10:50   100.00  99999.0   99999  99999.0   99999   99999.0   99999.0   99999.00 
  90   11:00   100.00  99999.0   99999  99999.0   99999   99999.0   99999.0   99999.00 
  90   11:10   100.00  99999.0   99999  99999.0   99999   99999.0   99999.0   99999.00 
  90   11:20   100.00  99999.0   99999  99999.0   99999   99999.0   99999.0   99999.00 
  90   11:30   0.93   65.6    17   16.9   279    24.6   812.4    0.00 
  90   11:40   100.00  99999.0   99999  99999.0   99999   99999.0   99999.0   99999.00 
  90   11:50   100.00  99999.0   99999  99999.0   99999   99999.0   99999.0   99999.00 
  90   12:00   100.00  99999.0   99999  99999.0   99999   99999.0   99999.0   99999.00 
  90   12:10   100.00  99999.0   99999  99999.0   99999   99999.0   99999.0   99999.00 
  90   12:20   100.00  99999.0   99999  99999.0   99999   99999.0   99999.0   99999.00 
  90   12:30   0.87   66.2    15   14.8   263    28.6   812.3    0.00 
  90   12:40   100.00  99999.0   99999  99999.0   99999   99999.0   99999.0   99999.00 
  90   12:50   100.00  99999.0   99999  99999.0   99999   99999.0   99999.0   99999.00 
  90   13:00   100.00  99999.0   99999  99999.0   99999   99999.0   99999.0   99999.00 
  90   13:10   100.00  99999.0   99999  99999.0   99999   99999.0   99999.0   99999.00 
  90   13:20   100.00  99999.0   99999  99999.0   99999   99999.0   99999.0   99999.00 
  90   13:30   0.85   66.4    12   22.7   259    32.4   811.6    0.00 
  90   13:40   100.00  99999.0   99999  99999.0   99999   99999.0   99999.0   99999.00 
  90   13:50   100.00  99999.0   99999  99999.0   99999   99999.0   99999.0   99999.00 
  90   14:00   100.00  99999.0   99999  99999.0   99999   99999.0   99999.0   99999.00 
  90   14:10   100.00  99999.0   99999  99999.0   99999   99999.0   99999.0   99999.00 
  90   14:20   100.00  99999.0   99999  99999.0   99999   99999.0   99999.0   99999.00 
  90   14:30   0.78   67.3    12   13.1   271    21.3   811.1    0.00 
  90   14:40   100.00  99999.0   99999  99999.0   99999   99999.0   99999.0   99999.00 
  90   14:50   100.00  99999.0   99999  99999.0   99999   99999.0   99999.0   99999.00 
  90   15:00   100.00  99999.0   99999  99999.0   99999   99999.0   99999.0   99999.00 
  90   15:10   100.00  99999.0   99999  99999.0   99999   99999.0   99999.0   99999.00 
  90   15:20   100.00  99999.0   99999  99999.0   99999   99999.0   99999.0   99999.00 
  90   15:30   0.53   64.5    10   16.1   278    26.2   811.1    0.00 
  90   15:40   100.00  99999.0   99999  99999.0   99999   99999.0   99999.0   99999.00 
  90   15:50   100.00  99999.0   99999  99999.0   99999   99999.0   99999.0   99999.00 
  90   16:00   100.00  99999.0   99999  99999.0   99999   99999.0   99999.0   99999.00 
  90   16:10   100.00  99999.0   99999  99999.0   99999   99999.0   99999.0   99999.00 
  90   16:20   100.00  99999.0   99999  99999.0   99999   99999.0   99999.0   99999.00 
  90   16:30   0.32   61.2    10   17.4   291    25.4   811.5    0.00 
  90   16:40   100.00  99999.0   99999  99999.0   99999   99999.0   99999.0   99999.00 
  90   16:50   100.00  99999.0   99999  99999.0   99999   99999.0   99999.0   99999.00 
  90   17:00   100.00  99999.0   99999  99999.0   99999   99999.0   99999.0   99999.00 
  90   17:10   100.00  99999.0   99999  99999.0   99999   99999.0   99999.0   99999.00 
  90   17:20   100.00  99999.0   99999  99999.0   99999   99999.0   99999.0   99999.00 
  90   17:30   0.11   57.4    11   15.1   294    21.9   811.7    0.00 
  90   17:40   100.00  99999.0   99999  99999.0   99999   99999.0   99999.0   99999.00 
  90   17:50   100.00  99999.0   99999  99999.0   99999   99999.0   99999.0   99999.00 
  90   18:00   100.00  99999.0   99999  99999.0   99999   99999.0   99999.0   99999.00 
  90   18:10   100.00  99999.0   99999  99999.0   99999   99999.0   99999.0   99999.00 
  90   18:20   100.00  99999.0   99999  99999.0   99999   99999.0   99999.0   99999.00 
  90   18:30   100.00  99999.0   99999  99999.0   99999   99999.0   99999.0   99999.00 
  90   18:40   100.00  99999.0   99999  99999.0   99999   99999.0   99999.0   99999.00 
  90   18:50   100.00  99999.0   99999  99999.0   99999   99999.0   99999.0   99999.00 
  90   19:00   100.00  99999.0   99999  99999.0   99999   99999.0   99999.0   99999.00 
  90   19:10   100.00  99999.0   99999  99999.0   99999   99999.0   99999.0   99999.00 
  90   19:20   100.00  99999.0   99999  99999.0   99999   99999.0   99999.0   99999.00 
  90   19:30   100.00  99999.0   99999  99999.0   99999   99999.0   99999.0   99999.00 
  90   19:40   100.00  99999.0   99999  99999.0   99999   99999.0   99999.0   99999.00 
  90   19:50   100.00  99999.0   99999  99999.0   99999   99999.0   99999.0   99999.00 
  90   20:00   100.00  99999.0   99999  99999.0   99999   99999.0   99999.0   99999.00 
  90   20:10   100.00  99999.0   99999  99999.0   99999   99999.0   99999.0   99999.00 
  90   20:20   100.00  99999.0   99999  99999.0   99999   99999.0   99999.0   99999.00 
  90   20:30   0.00   47.3    30   14.0   326    18.9   813.8    0.00 
  90   20:40   100.00  99999.0   99999  99999.0   99999   99999.0   99999.0   99999.00 
  90   20:50   100.00  99999.0   99999  99999.0   99999   99999.0   99999.0   99999.00 
  90   21:00   100.00  99999.0   99999  99999.0   99999   99999.0   99999.0   99999.00 
  90   21:10   100.00  99999.0   99999  99999.0   99999   99999.0   99999.0   99999.00 
  90   21:20   100.00  99999.0   99999  99999.0   99999   99999.0   99999.0   99999.00 
  90   21:30   0.00   41.9    44    9.9   348    14.0   814.8    0.00 
  90   21:40   100.00  99999.0   99999  99999.0   99999   99999.0   99999.0   99999.00 
  90   21:50   100.00  99999.0   99999  99999.0   99999   99999.0   99999.0   99999.00 
  90   22:00   100.00  99999.0   99999  99999.0   99999   99999.0   99999.0   99999.00 
  90   22:10   100.00  99999.0   99999  99999.0   99999   99999.0   99999.0   99999.00 
  90   22:20   100.00  99999.0   99999  99999.0   99999   99999.0   99999.0   99999.00 
  90   22:30   0.00   39.0    48    9.1   351    12.8   815.4    0.00 
  90   22:40   100.00  99999.0   99999  99999.0   99999   99999.0   99999.0   99999.00 
  90   22:50   100.00  99999.0   99999  99999.0   99999   99999.0   99999.0   99999.00 
  90   23:00   100.00  99999.0   99999  99999.0   99999   99999.0   99999.0   99999.00 
  90   23:10   100.00  99999.0   99999  99999.0   99999   99999.0   99999.0   99999.00 
  90   23:20   100.00  99999.0   99999  99999.0   99999   99999.0   99999.0   99999.00 
  90   23:30   100.00  99999.0   99999  99999.0   99999   99999.0   99999.0   99999.00 
  90   23:40   100.00  99999.0   99999  99999.0   99999   99999.0   99999.0   99999.00 
  90   23:50   100.00  99999.0   99999  99999.0   99999   99999.0   99999.0   99999.00 
  91    0:00   100.00  99999.0   99999  99999.0   99999   99999.0   99999.0   99999.00 
  91    0:10   100.00  99999.0   99999  99999.0   99999   99999.0   99999.0   99999.00 
  91    0:20   100.00  99999.0   99999  99999.0   99999   99999.0   99999.0   99999.00 
  91    0:30   100.00  99999.0   99999  99999.0   99999   99999.0   99999.0   99999.00 
  91    0:40   100.00  99999.0   99999  99999.0   99999   99999.0   99999.0   99999.00 
  91    0:50   100.00  99999.0   99999  99999.0   99999   99999.0   99999.0   99999.00 
  91    1:00   100.00  99999.0   99999  99999.0   99999   99999.0   99999.0   99999.00 
  91    1:10   100.00  99999.0   99999  99999.0   99999   99999.0   99999.0   99999.00 
  91    1:20   100.00  99999.0   99999  99999.0   99999   99999.0   99999.0   99999.00 
  91    1:30   0.00   29.3    60    3.9    99     5.7   816.7    0.00 
  91    1:40   100.00  99999.0   99999  99999.0   99999   99999.0   99999.0   99999.00 
  91    1:50   100.00  99999.0   99999  99999.0   99999   99999.0   99999.0   99999.00 
  91    2:00   100.00  99999.0   99999  99999.0   99999   99999.0   99999.0   99999.00 
  91    2:10   100.00  99999.0   99999  99999.0   99999   99999.0   99999.0   99999.00 
  91    2:20   100.00  99999.0   99999  99999.0   99999   99999.0   99999.0   99999.00 
  91    2:30   0.00   27.6    60    2.2   260     3.7   816.6    0.00 
  91    2:40   100.00  99999.0   99999  99999.0   99999   99999.0   99999.0   99999.00 
  91    2:50   100.00  99999.0   99999  99999.0   99999   99999.0   99999.0   99999.00 
  91    3:00   100.00  99999.0   99999  99999.0   99999   99999.0   99999.0   99999.00 
  91    3:10   100.00  99999.0   99999  99999.0   99999   99999.0   99999.0   99999.00 
  91    3:20   100.00  99999.0   99999  99999.0   99999   99999.0   99999.0   99999.00 
  91    3:30   0.00   17.0    76    4.7   205     6.2   816.4    0.00 
  91    3:40   100.00  99999.0   99999  99999.0   99999   99999.0   99999.0   99999.00 
  91    3:50   100.00  99999.0   99999  99999.0   99999   99999.0   99999.0   99999.00 
  91    4:00   100.00  99999.0   99999  99999.0   99999   99999.0   99999.0   99999.00 
  91    4:10   100.00  99999.0   99999  99999.0   99999   99999.0   99999.0   99999.00 
  91    4:20   100.00  99999.0   99999  99999.0   99999   99999.0   99999.0   99999.00 
  91    4:30   0.00   17.4    76    4.4   215     5.6   816.4    0.00 
  91    4:40   100.00  99999.0   99999  99999.0   99999   99999.0   99999.0   99999.00 
  91    4:50   100.00  99999.0   99999  99999.0   99999   99999.0   99999.0   99999.00 
  91    5:00   100.00  99999.0   99999  99999.0   99999   99999.0   99999.0   99999.00 
  91    5:10   100.00  99999.0   99999  99999.0   99999   99999.0   99999.0   99999.00 
  91    5:20   100.00  99999.0   99999  99999.0   99999   99999.0   99999.0   99999.00 
  91    5:30   0.00   15.1    76    3.6   180     4.8   816.4    0.00 
  91    5:40   100.00  99999.0   99999  99999.0   99999   99999.0   99999.0   99999.00 
  91    5:50   100.00  99999.0   99999  99999.0   99999   99999.0   99999.0   99999.00 
  91    6:00   100.00  99999.0   99999  99999.0   99999   99999.0   99999.0   99999.00 
  91    6:10   100.00  99999.0   99999  99999.0   99999   99999.0   99999.0   99999.00 
  91    6:20   100.00  99999.0   99999  99999.0   99999   99999.0   99999.0   99999.00 
  91    6:30   0.13   22.6    68    2.3   177     3.9   816.9    0.00 
  91    6:40   100.00  99999.0   99999  99999.0   99999   99999.0   99999.0   99999.00 
  91    6:50   100.00  99999.0   99999  99999.0   99999   99999.0   99999.0   99999.00 
  91    7:00   100.00  99999.0   99999  99999.0   99999   99999.0   99999.0   99999.00 
  91    7:10   100.00  99999.0   99999  99999.0   99999   99999.0   99999.0   99999.00 
  91    7:20   100.00  99999.0   99999  99999.0   99999   99999.0   99999.0   99999.00 
  91    7:30   0.35   33.3    51    1.9   337     4.7   816.4    0.00 

Return to Reese River Valley graphs page.


Western Regional Climate Center,wrcc@dri.edu